createdAt,value
2022-08-03T00:01:36.992Z,86.14
2022-08-03T00:04:41.015Z,84.31
2022-08-03T00:07:43.585Z,84.63
2022-08-03T00:10:46.969Z,84.94
2022-08-03T00:13:50.593Z,84.41
2022-08-03T00:16:53.173Z,84.06
2022-08-03T00:19:57.064Z,82.80
2022-08-03T00:22:59.674Z,82.99
2022-08-03T00:26:02.501Z,82.27
2022-08-03T00:29:05.114Z,82.93
2022-08-03T00:32:07.779Z,81.69
2022-08-03T00:35:29.975Z,82.53
2022-08-03T00:38:37.460Z,81.37
2022-08-03T00:41:40.069Z,81.98
2022-08-03T00:44:43.191Z,81.31
2022-08-03T00:47:46.021Z,80.92
2022-08-03T00:50:49.941Z,81.95
2022-08-03T00:53:56.599Z,81.94
2022-08-03T00:56:59.528Z,81.15
2022-08-03T01:00:03.110Z,82.35
2022-08-03T01:03:06.654Z,82.66
2022-08-03T01:06:16.670Z,83.04
2022-08-03T01:09:31.937Z,82.40
2022-08-03T01:12:39.204Z,82.23
2022-08-03T01:15:47.308Z,83.17
2022-08-03T01:18:56.372Z,82.62
2022-08-03T01:22:12.039Z,82.92
2022-08-03T01:25:24.419Z,82.50
2022-08-03T01:28:40.000Z,83.58
2022-08-03T01:32:58.291Z,83.98
2022-08-03T01:35:23.167Z,83.72
2022-08-03T01:38:29.732Z,84.51
2022-08-03T01:41:35.242Z,84.89
2022-08-03T01:44:41.462Z,85.12
2022-08-03T01:47:46.663Z,86.48
2022-08-03T01:50:50.573Z,87.11
2022-08-03T01:53:55.356Z,87.26
2022-08-03T01:57:00.004Z,87.99
2022-08-03T02:00:03.651Z,87.82
2022-08-03T02:03:09.279Z,87.34
2022-08-03T02:06:58.907Z,88.12
2022-08-03T02:09:39.573Z,88.70
2022-08-03T02:12:46.101Z,88.21
2022-08-03T02:15:50.305Z,88.25
2022-08-03T02:18:56.092Z,88.46
2022-08-03T02:22:01.112Z,88.56
2022-08-03T02:25:05.022Z,89.20
2022-08-03T02:28:11.619Z,90.09
2022-08-03T02:31:19.178Z,90.00
2022-08-03T02:34:26.655Z,90.34
2022-08-03T02:37:35.042Z,89.92
2022-08-03T02:40:39.620Z,89.67
2022-08-03T02:44:06.284Z,89.46
2022-08-03T02:47:12.478Z,90.60
2022-08-03T02:50:18.163Z,89.87
2022-08-03T02:53:22.325Z,89.84
2022-08-03T02:56:26.582Z,90.39
2022-08-03T02:59:31.257Z,89.84
2022-08-03T03:02:34.904Z,90.25
2022-08-03T03:05:55.855Z,90.41
2022-08-03T03:09:00.785Z,89.77
2022-08-03T03:12:04.332Z,90.05
2022-08-03T03:15:07.712Z,89.98
2022-08-03T03:18:11.560Z,90.68
2022-08-03T03:21:18.909Z,90.91
2022-08-03T03:24:22.393Z,91.73
2022-08-03T03:27:25.409Z,91.64
2022-08-03T03:30:30.186Z,91.85
2022-08-03T03:33:34.384Z,92.00
2022-08-03T03:36:38.445Z,92.45
2022-08-03T03:39:41.112Z,92.05
2022-08-03T03:42:43.813Z,92.25
2022-08-03T03:45:46.829Z,92.68
2022-08-03T03:48:49.594Z,92.73
2022-08-03T03:51:55.260Z,92.42
2022-08-03T03:55:01.071Z,92.84
2022-08-03T03:58:04.859Z,91.90
2022-08-03T04:01:08.790Z,92.39
2022-08-03T04:04:28.962Z,92.81
2022-08-03T04:08:03.487Z,92.12
2022-08-03T04:11:13.626Z,92.29
2022-08-03T04:14:20.008Z,92.98
2022-08-03T04:17:28.137Z,92.81
2022-08-03T04:20:33.383Z,92.99
2022-08-03T04:23:56.387Z,93.71
2022-08-03T04:27:01.946Z,93.90
2022-08-03T04:30:06.744Z,93.85
2022-08-03T04:33:09.660Z,93.69
2022-08-03T04:36:18.298Z,93.70
2022-08-03T04:39:26.475Z,94.19
2022-08-03T04:42:30.484Z,94.52
2022-08-03T04:45:35.189Z,94.62
2022-08-03T04:48:39.732Z,94.26
2022-08-03T04:51:44.797Z,94.53
2022-08-03T04:54:50.948Z,94.70
2022-08-03T04:57:53.848Z,93.53
2022-08-03T05:00:56.417Z,95.26
2022-08-03T05:03:59.059Z,94.85
2022-08-03T05:07:11.691Z,95.18
2022-08-03T05:10:17.672Z,95.02
2022-08-03T05:13:20.289Z,94.77
2022-08-03T05:16:22.883Z,95.07
2022-08-03T05:19:25.472Z,95.12
2022-08-03T05:22:28.065Z,96.02
2022-08-03T05:25:31.997Z,95.60
2022-08-03T05:28:34.585Z,95.06
2022-08-03T05:31:37.202Z,94.97
2022-08-03T05:34:39.874Z,95.02
2022-08-03T05:37:42.454Z,94.98
2022-08-03T05:41:21.431Z,92.33
2022-08-03T05:44:22.149Z,93.73
2022-08-03T05:47:24.842Z,89.02
2022-08-03T05:50:27.409Z,91.23
2022-08-03T05:53:30.018Z,91.95
2022-08-03T05:56:33.944Z,91.13
2022-08-03T05:59:39.087Z,87.11
2022-08-03T06:02:41.685Z,85.87
2022-08-03T06:05:55.505Z,88.88
2022-08-03T06:09:03.060Z,86.09
2022-08-03T06:12:11.139Z,86.66
2022-08-03T06:15:16.763Z,81.96
2022-08-03T06:18:19.942Z,83.78
2022-08-03T06:21:22.676Z,79.73
2022-08-03T06:24:25.438Z,82.95
2022-08-03T06:27:36.636Z,83.65
2022-08-03T06:30:40.311Z,79.77
2022-08-03T06:34:31.327Z,79.27
2022-08-03T06:37:05.844Z,76.33
2022-08-03T06:40:09.451Z,78.68
2022-08-03T06:43:17.746Z,76.33
2022-08-03T06:46:20.390Z,75.69
2022-08-03T06:49:23.091Z,74.19
2022-08-03T06:52:37.650Z,74.97
2022-08-03T06:55:42.530Z,72.46
2022-08-03T06:58:47.327Z,75.33
2022-08-03T07:01:50.130Z,72.93
2022-08-03T07:04:52.744Z,72.65
2022-08-03T07:07:56.738Z,74.28
2022-08-03T07:10:59.317Z,73.62
2022-08-03T07:14:04.254Z,72.64
2022-08-03T07:17:11.551Z,72.11
2022-08-03T07:20:15.236Z,70.93
2022-08-03T07:23:19.269Z,71.90
2022-08-03T07:26:22.112Z,72.89
2022-08-03T07:29:26.162Z,70.05
2022-08-03T07:32:31.270Z,72.60
2022-08-03T07:35:33.980Z,68.86
2022-08-03T07:38:37.287Z,66.90
2022-08-03T07:41:39.905Z,68.18
2022-08-03T07:44:45.814Z,67.28
2022-08-03T07:47:53.222Z,68.46
2022-08-03T07:50:56.530Z,65.44
2022-08-03T07:54:00.748Z,63.51
2022-08-03T07:57:03.367Z,62.23
2022-08-03T08:00:13.639Z,62.43
2022-08-03T08:03:16.372Z,63.61
2022-08-03T08:06:19.315Z,62.94
2022-08-03T08:09:21.930Z,58.91
2022-08-03T08:12:24.691Z,57.97
2022-08-03T08:15:28.987Z,58.33
2022-08-03T08:18:32.032Z,58.60
2022-08-03T08:21:53.128Z,58.30
2022-08-03T08:24:57.252Z,55.17
2022-08-03T08:28:22.235Z,54.46
2022-08-03T08:31:26.465Z,55.13
2022-08-03T08:34:29.085Z,55.23
2022-08-03T08:37:35.085Z,54.84
2022-08-03T08:40:37.694Z,54.53
2022-08-03T08:43:40.326Z,52.89
2022-08-03T08:46:44.978Z,55.02
2022-08-03T08:50:08.943Z,52.89
2022-08-03T08:53:18.171Z,53.52
2022-08-03T08:56:25.380Z,56.24
2022-08-03T08:59:47.666Z,53.03
2022-08-03T09:02:52.322Z,51.72
2022-08-03T09:05:56.408Z,50.61
2022-08-03T09:08:59.483Z,52.81
2022-08-03T09:12:34.983Z,50.29
2022-08-03T09:15:27.255Z,50.39
2022-08-03T09:18:32.536Z,50.47
2022-08-03T09:21:35.833Z,52.29
2022-08-03T09:24:43.484Z,51.09
2022-08-03T09:27:47.127Z,50.13
2022-08-03T09:30:59.923Z,48.28
2022-08-03T09:34:06.782Z,48.64
2022-08-03T09:37:14.990Z,50.35
2022-08-03T09:40:35.520Z,50.02
2022-08-03T09:43:47.504Z,51.30
2022-08-03T09:46:51.334Z,50.92
2022-08-03T09:50:01.921Z,48.98
2022-08-03T09:53:04.607Z,48.42
2022-08-03T09:56:35.715Z,48.41
2022-08-03T09:59:31.760Z,46.98
2022-08-03T10:02:34.453Z,47.01
2022-08-03T10:05:44.494Z,46.48
2022-08-03T10:08:47.116Z,45.46
2022-08-03T10:11:50.118Z,45.24
2022-08-03T10:14:54.135Z,44.58
2022-08-03T10:17:56.729Z,44.74
2022-08-03T10:21:05.784Z,46.91
2022-08-03T10:24:11.087Z,45.81
2022-08-03T10:27:15.968Z,45.12
2022-08-03T10:30:18.639Z,45.17
2022-08-03T10:33:50.668Z,44.01
2022-08-03T10:36:50.094Z,42.91
2022-08-03T10:39:56.431Z,41.79
2022-08-03T10:43:08.918Z,41.42
2022-08-03T10:46:11.524Z,40.07
2022-08-03T10:49:15.750Z,41.12
2022-08-03T10:52:31.878Z,41.61
2022-08-03T10:55:56.910Z,39.83
2022-08-03T10:59:03.826Z,38.38
2022-08-03T11:02:08.300Z,40.28
2022-08-03T11:05:26.573Z,39.45
2022-08-03T11:08:34.641Z,39.87
2022-08-03T11:11:37.573Z,38.82
2022-08-03T11:14:49.159Z,38.46
2022-08-03T11:18:11.209Z,37.13
2022-08-03T11:21:14.624Z,37.93
2022-08-03T11:24:54.172Z,37.35
2022-08-03T11:28:28.922Z,39.50
2022-08-03T11:31:50.154Z,36.49
2022-08-03T11:35:08.871Z,36.40
2022-08-03T11:38:12.911Z,35.48
2022-08-03T11:41:43.339Z,35.62
2022-08-03T11:44:50.521Z,36.27
2022-08-03T11:47:55.829Z,35.41
2022-08-03T11:50:58.449Z,34.30
2022-08-03T11:54:03.029Z,34.12
2022-08-03T11:57:05.947Z,33.82
2022-08-03T12:00:37.241Z,34.21
2022-08-03T12:03:39.964Z,34.34
2022-08-03T12:06:55.445Z,35.08
2022-08-03T12:10:08.691Z,32.90
2022-08-03T12:14:45.213Z,33.54
2022-08-03T12:16:35.620Z,34.45
2022-08-03T12:19:43.440Z,33.75
2022-08-03T12:22:46.139Z,33.24
2022-08-03T12:25:49.519Z,33.29
2022-08-03T12:28:52.930Z,33.58
2022-08-03T12:31:57.682Z,32.88
2022-08-03T12:35:04.306Z,32.37
2022-08-03T12:38:07.229Z,31.01
2022-08-03T12:41:13.498Z,33.01
2022-08-03T12:44:16.715Z,32.55
2022-08-03T12:47:20.857Z,34.44
2022-08-03T12:50:29.229Z,33.20
2022-08-03T12:53:31.853Z,32.81
2022-08-03T12:56:35.425Z,31.47
2022-08-03T12:59:42.419Z,31.80
2022-08-03T13:03:38.205Z,32.68
2022-08-03T13:06:26.733Z,32.40
2022-08-03T13:09:29.979Z,33.24
2022-08-03T13:12:32.566Z,31.87
2022-08-03T13:15:38.729Z,33.01
2022-08-03T13:18:53.252Z,32.02
2022-08-03T13:22:04.106Z,32.65
2022-08-03T13:25:08.437Z,31.53
2022-08-03T13:28:14.140Z,32.37
2022-08-03T13:31:17.226Z,33.24
2022-08-03T13:34:23.868Z,32.04
2022-08-03T13:37:27.559Z,33.25
2022-08-03T13:40:35.576Z,31.82
2022-08-03T13:43:44.162Z,32.35
2022-08-03T13:46:46.963Z,33.00
2022-08-03T13:50:00.002Z,34.62
2022-08-03T13:53:04.661Z,34.07
2022-08-03T13:56:07.274Z,34.66
2022-08-03T13:59:10.995Z,33.39
2022-08-03T14:02:13.649Z,33.84
2022-08-03T14:05:17.602Z,32.89
2022-08-03T14:08:20.132Z,34.63
2022-08-03T14:11:22.761Z,33.44
2022-08-03T14:14:25.343Z,33.51
2022-08-03T14:17:42.414Z,33.94
2022-08-03T14:20:56.168Z,33.50
2022-08-03T14:23:59.925Z,34.20
2022-08-03T14:27:09.052Z,35.02
2022-08-03T14:30:13.214Z,35.56
2022-08-03T14:33:16.418Z,36.61
2022-08-03T14:36:20.400Z,35.28
2022-08-03T14:39:23.084Z,37.81
2022-08-03T14:42:25.746Z,36.51
2022-08-03T14:45:28.367Z,37.48
2022-08-03T14:50:31.051Z,37.63
2022-08-03T14:51:54.982Z,37.71
2022-08-03T14:54:57.916Z,37.57
2022-08-03T14:58:05.400Z,37.63
2022-08-03T15:02:03.167Z,37.67
2022-08-03T15:04:44.770Z,37.16
2022-08-03T15:07:48.658Z,39.37
2022-08-03T15:10:51.622Z,38.84
2022-08-03T15:13:54.247Z,38.61
2022-08-03T15:16:56.831Z,38.81
2022-08-03T15:20:18.974Z,39.85
2022-08-03T15:23:23.396Z,39.67
2022-08-03T15:26:32.838Z,39.04
2022-08-03T15:30:07.398Z,38.66
2022-08-03T15:32:59.226Z,39.32
2022-08-03T15:36:01.785Z,38.70
2022-08-03T15:39:06.121Z,39.56
2022-08-03T15:42:08.880Z,40.65
2022-08-03T15:45:12.752Z,40.69
2022-08-03T15:48:15.571Z,40.88
2022-08-03T15:51:18.171Z,39.33
2022-08-03T15:54:22.100Z,39.99
2022-08-03T15:57:24.704Z,39.64
2022-08-03T16:00:33.303Z,40.45
2022-08-03T16:03:36.576Z,41.05
2022-08-03T16:06:39.410Z,40.44
2022-08-03T16:09:44.012Z,40.93
2022-08-03T16:12:47.590Z,42.27
2022-08-03T16:15:50.214Z,40.78
2022-08-03T16:18:53.046Z,43.32
2022-08-03T16:21:55.604Z,43.89
2022-08-03T16:25:02.249Z,45.08
2022-08-03T16:28:08.279Z,42.74
2022-08-03T16:31:15.302Z,44.10
2022-08-03T16:34:19.095Z,42.11
2022-08-03T16:37:38.103Z,42.71
2022-08-03T16:40:43.448Z,45.34
2022-08-03T16:43:46.050Z,46.34
2022-08-03T16:46:48.651Z,45.80
2022-08-03T16:49:53.820Z,43.70
2022-08-03T16:52:59.010Z,43.10
2022-08-03T16:56:06.711Z,42.81
2022-08-03T16:59:12.677Z,41.60
2022-08-03T17:02:21.878Z,41.60
2022-08-03T17:05:32.697Z,41.92
2022-08-03T17:08:55.174Z,42.99
2022-08-03T17:11:59.545Z,44.39
2022-08-03T17:15:02.949Z,45.19
2022-08-03T17:18:09.785Z,46.10
2022-08-03T17:21:12.824Z,46.46
2022-08-03T17:24:26.340Z,45.52
2022-08-03T17:28:48.358Z,43.58
2022-08-03T17:31:23.366Z,44.15
2022-08-03T17:34:35.051Z,44.46
2022-08-03T17:37:58.538Z,45.57
2022-08-03T17:41:11.033Z,47.69
2022-08-03T17:44:33.140Z,46.76
2022-08-03T17:47:41.257Z,48.38
2022-08-03T17:50:54.201Z,49.61
2022-08-03T17:54:05.321Z,49.12
2022-08-03T17:57:30.197Z,49.73
2022-08-03T18:01:59.587Z,50.89
2022-08-03T18:04:43.786Z,50.58
2022-08-03T18:08:02.641Z,50.69
2022-08-03T18:11:14.504Z,50.47
2022-08-03T18:14:39.119Z,53.03
2022-08-03T18:17:55.479Z,52.74
2022-08-03T18:21:09.409Z,54.20
2022-08-03T18:24:20.604Z,54.73
2022-08-03T18:27:42.848Z,54.71
2022-08-03T18:30:53.143Z,55.36
2022-08-03T18:34:32.133Z,55.98
2022-08-03T18:37:25.344Z,56.19
2022-08-03T18:40:28.432Z,56.67
2022-08-03T18:43:47.609Z,56.86
2022-08-03T18:47:15.811Z,58.05
2022-08-03T18:50:29.296Z,60.55
2022-08-03T18:54:03.123Z,61.52
2022-08-03T18:57:06.559Z,61.74
2022-08-03T19:03:42.911Z,62.94
2022-08-03T19:06:49.749Z,63.77
2022-08-03T19:10:03.784Z,64.45
2022-08-03T19:13:14.096Z,64.57
2022-08-03T19:16:22.642Z,65.34
2022-08-03T19:19:43.647Z,66.19
2022-08-03T19:22:49.223Z,67.24
2022-08-03T19:25:52.685Z,67.46
2022-08-03T19:28:58.022Z,68.69
2022-08-03T19:32:02.742Z,68.78
2022-08-03T19:35:13.341Z,69.17
2022-08-03T19:38:28.755Z,69.60
2022-08-03T19:41:42.075Z,69.98
2022-08-03T19:44:50.829Z,70.30
2022-08-03T19:48:09.470Z,70.64
2022-08-03T19:51:12.787Z,70.65
2022-08-03T19:54:17.122Z,71.15
2022-08-03T19:57:34.498Z,70.97
2022-08-03T20:00:39.576Z,71.79
2022-08-03T20:03:52.941Z,72.43
2022-08-03T20:06:58.563Z,70.85
2022-08-03T20:10:05.193Z,71.80
2022-08-03T20:13:08.405Z,72.89
2022-08-03T20:16:11.192Z,74.47
2022-08-03T20:19:14.463Z,75.82
2022-08-03T20:22:17.413Z,75.33
2022-08-03T20:25:38.468Z,76.04
2022-08-03T20:28:50.060Z,76.50
2022-08-03T20:31:53.388Z,77.64
2022-08-03T20:34:58.796Z,77.32
2022-08-03T20:38:01.365Z,77.10
2022-08-03T20:41:06.215Z,77.85
2022-08-03T20:44:08.833Z,78.20
2022-08-03T20:47:11.930Z,79.32
2022-08-03T20:50:26.989Z,79.85
2022-08-03T20:53:57.304Z,79.68
2022-08-03T20:56:54.243Z,79.09
2022-08-03T20:59:56.817Z,79.32
2022-08-03T21:02:59.818Z,77.37
2022-08-03T21:06:07.082Z,77.78
2022-08-03T21:09:18.180Z,79.27
2022-08-03T21:12:29.635Z,79.10
2022-08-03T21:13:09.723Z,62.36
2022-08-03T21:16:02.466Z,79.40
2022-08-03T21:19:00.754Z,79.01
2022-08-03T21:22:05.350Z,79.93
2022-08-03T21:25:09.800Z,80.46
2022-08-03T21:28:14.202Z,81.02
2022-08-03T21:31:27.606Z,81.46
2022-08-03T21:34:31.170Z,81.70
2022-08-03T21:37:34.228Z,81.39
2022-08-03T21:40:37.421Z,81.86
2022-08-03T21:43:41.415Z,82.64
2022-08-03T21:46:46.325Z,82.85
2022-08-03T21:50:07.872Z,82.14
2022-08-03T21:53:13.092Z,82.45
2022-08-03T21:56:20.914Z,83.13
2022-08-03T21:59:26.689Z,83.56
2022-08-03T22:02:32.355Z,83.91
2022-08-03T22:05:44.047Z,84.70
2022-08-03T22:08:47.308Z,84.53
2022-08-03T22:11:53.976Z,84.73
2022-08-03T22:15:00.410Z,85.23
2022-08-03T22:18:05.206Z,84.96
2022-08-03T22:21:11.785Z,85.25
2022-08-03T22:24:16.808Z,85.22
2022-08-03T22:27:32.479Z,85.29
2022-08-03T22:30:37.036Z,84.19
2022-08-03T22:33:40.630Z,84.41
2022-08-03T22:36:43.712Z,84.79
2022-08-03T22:39:46.839Z,84.88
2022-08-03T22:42:52.133Z,85.09
2022-08-03T22:46:11.223Z,85.68
2022-08-03T22:49:16.186Z,85.35
2022-08-03T22:52:19.270Z,85.72
2022-08-03T22:55:24.841Z,86.19
2022-08-03T22:58:27.765Z,86.49
2022-08-03T23:01:38.006Z,87.14
2022-08-03T23:04:42.546Z,87.41
2022-08-03T23:07:46.470Z,87.25
2022-08-03T23:10:49.870Z,87.98
2022-08-03T23:13:54.778Z,87.62
2022-08-03T23:17:03.846Z,88.57
2022-08-03T23:20:09.108Z,89.36
2022-08-03T23:23:12.105Z,90.70
2022-08-03T23:26:17.123Z,90.13
2022-08-03T23:29:21.364Z,89.25
2022-08-03T23:32:26.690Z,90.16
2022-08-03T23:36:17.300Z,91.03
2022-08-03T23:39:10.141Z,90.39
2022-08-03T23:42:14.401Z,90.09
2022-08-03T23:45:19.343Z,90.17
2022-08-03T23:48:23.436Z,90.71
2022-08-03T23:51:37.690Z,91.81
2022-08-03T23:54:52.287Z,92.11
2022-08-03T23:58:04.589Z,91.82
